sensor_id;sensor_type;location;lat;lon;timestamp;P1;P2;P0
57049;PMS7003;42935;50.966;16.992;2022-10-22T00:00:22;25;19;14
57049;PMS7003;42935;50.966;16.992;2022-10-22T00:03:34;31;21;15
57049;PMS7003;42935;50.966;16.992;2022-10-22T00:06:47;27;22;16
57049;PMS7003;42935;50.966;16.992;2022-10-22T00:09:58;29;23;14
57049;PMS7003;42935;50.966;16.992;2022-10-22T00:13:10;24;21;14
57049;PMS7003;42935;50.966;16.992;2022-10-22T00:16:21;29;23;15
57049;PMS7003;42935;50.966;16.992;2022-10-22T00:19:32;33;22;14
57049;PMS7003;42935;50.966;16.992;2022-10-22T00:22:38;28;20;15
57049;PMS7003;42935;50.966;16.992;2022-10-22T00:25:48;27;22;15
57049;PMS7003;42935;50.966;16.992;2022-10-22T00:28:58;25;21;14
57049;PMS7003;42935;50.966;16.992;2022-10-22T00:32:04;30;24;18
57049;PMS7003;42935;50.966;16.992;2022-10-22T00:35:13;29;22;16
57049;PMS7003;42935;50.966;16.992;2022-10-22T00:38:24;24;22;14
57049;PMS7003;42935;50.966;16.992;2022-10-22T00:41:35;27;22;15
57049;PMS7003;42935;50.966;16.992;2022-10-22T00:48:08;33;21;13
57049;PMS7003;42935;50.966;16.992;2022-10-22T00:51:27;27;21;14
57049;PMS7003;42935;50.966;16.992;2022-10-22T00:54:40;25;20;14
57049;PMS7003;42935;50.966;16.992;2022-10-22T00:57:51;28;21;14
57049;PMS7003;42935;50.966;16.992;2022-10-22T01:01:12;30;24;15
57049;PMS7003;42935;50.966;16.992;2022-10-22T01:04:26;27;21;15
57049;PMS7003;42935;50.966;16.992;2022-10-22T01:07:39;27;21;16
57049;PMS7003;42935;50.966;16.992;2022-10-22T01:17:49;27;22;16
57049;PMS7003;42935;50.966;16.992;2022-10-22T01:21:20;28;24;16
57049;PMS7003;42935;50.966;16.992;2022-10-22T01:24:37;32;25;17
57049;PMS7003;42935;50.966;16.992;2022-10-22T01:28:00;34;26;17
57049;PMS7003;42935;50.966;16.992;2022-10-22T01:31:17;33;27;18
57049;PMS7003;42935;50.966;16.992;2022-10-22T01:34:31;30;24;17
57049;PMS7003;42935;50.966;16.992;2022-10-22T01:37:49;30;23;16
57049;PMS7003;42935;50.966;16.992;2022-10-22T01:41:06;27;23;15
57049;PMS7003;42935;50.966;16.992;2022-10-22T01:47:48;28;24;15
57049;PMS7003;42935;50.966;16.992;2022-10-22T01:57:52;28;23;14
57049;PMS7003;42935;50.966;16.992;2022-10-22T02:07:58;28;25;17
57049;PMS7003;42935;50.966;16.992;2022-10-22T02:11:18;30;26;16
57049;PMS7003;42935;50.966;16.992;2022-10-22T02:14:29;30;24;15
57049;PMS7003;42935;50.966;16.992;2022-10-22T02:17:38;33;26;16
57049;PMS7003;42935;50.966;16.992;2022-10-22T02:20:54;28;23;17
57049;PMS7003;42935;50.966;16.992;2022-10-22T02:24:06;31;23;16
57049;PMS7003;42935;50.966;16.992;2022-10-22T02:30:43;30;22;17
57049;PMS7003;42935;50.966;16.992;2022-10-22T02:33:57;33;24;17
57049;PMS7003;42935;50.966;16.992;2022-10-22T02:37:13;32;25;17
57049;PMS7003;42935;50.966;16.992;2022-10-22T02:40:26;32;26;18
57049;PMS7003;42935;50.966;16.992;2022-10-22T02:43:41;30;29;17
57049;PMS7003;42935;50.966;16.992;2022-10-22T02:46:53;34;26;18
57049;PMS7003;42935;50.966;16.992;2022-10-22T02:50:11;30;25;16
57049;PMS7003;42935;50.966;16.992;2022-10-22T02:53:21;32;22;15
57049;PMS7003;42935;50.966;16.992;2022-10-22T02:56:29;32;26;16
57049;PMS7003;42935;50.966;16.992;2022-10-22T02:59:41;27;23;16
57049;PMS7003;42935;50.966;16.992;2022-10-22T03:02:53;28;24;16
57049;PMS7003;42935;50.966;16.992;2022-10-22T03:06:05;30;22;15
57049;PMS7003;42935;50.966;16.992;2022-10-22T03:09:14;33;26;16
57049;PMS7003;42935;50.966;16.992;2022-10-22T03:12:24;34;24;16
57049;PMS7003;42935;50.966;16.992;2022-10-22T03:15:35;31;26;17
57049;PMS7003;42935;50.966;16.992;2022-10-22T03:18:46;28;24;16
57049;PMS7003;42935;50.966;16.992;2022-10-22T03:22:11;30;26;16
57049;PMS7003;42935;50.966;16.992;2022-10-22T03:25:30;37;29;18
57049;PMS7003;42935;50.966;16.992;2022-10-22T03:28:44;30;26;17
57049;PMS7003;42935;50.966;16.992;2022-10-22T03:32:05;33;28;17
57049;PMS7003;42935;50.966;16.992;2022-10-22T03:35:50;28;25;17
57049;PMS7003;42935;50.966;16.992;2022-10-22T03:39:02;29;24;16
57049;PMS7003;42935;50.966;16.992;2022-10-22T03:42:16;28;23;16
57049;PMS7003;42935;50.966;16.992;2022-10-22T03:45:27;30;22;15
57049;PMS7003;42935;50.966;16.992;2022-10-22T03:48:37;31;27;18
57049;PMS7003;42935;50.966;16.992;2022-10-22T03:51:48;30;23;16
57049;PMS7003;42935;50.966;16.992;2022-10-22T03:55:05;32;22;16
57049;PMS7003;42935;50.966;16.992;2022-10-22T03:58:14;28;21;15
57049;PMS7003;42935;50.966;16.992;2022-10-22T04:01:25;34;27;17
57049;PMS7003;42935;50.966;16.992;2022-10-22T04:04:41;29;25;16
57049;PMS7003;42935;50.966;16.992;2022-10-22T04:07:52;32;25;17
57049;PMS7003;42935;50.966;16.992;2022-10-22T04:11:01;32;22;16
57049;PMS7003;42935;50.966;16.992;2022-10-22T04:14:19;31;26;16
57049;PMS7003;42935;50.966;16.992;2022-10-22T04:17:25;29;24;16
57049;PMS7003;42935;50.966;16.992;2022-10-22T04:20:42;30;24;16
57049;PMS7003;42935;50.966;16.992;2022-10-22T04:23:53;31;25;16
57049;PMS7003;42935;50.966;16.992;2022-10-22T04:27:02;25;22;17
57049;PMS7003;42935;50.966;16.992;2022-10-22T04:30:13;29;23;16
57049;PMS7003;42935;50.966;16.992;2022-10-22T04:33:24;31;25;16
57049;PMS7003;42935;50.966;16.992;2022-10-22T04:36:34;26;20;15
57049;PMS7003;42935;50.966;16.992;2022-10-22T04:39:45;24;21;14
57049;PMS7003;42935;50.966;16.992;2022-10-22T04:43:01;26;24;15
57049;PMS7003;42935;50.966;16.992;2022-10-22T04:46:11;24;21;14
57049;PMS7003;42935;50.966;16.992;2022-10-22T04:49:23;29;26;17
57049;PMS7003;42935;50.966;16.992;2022-10-22T04:52:36;31;24;16
57049;PMS7003;42935;50.966;16.992;2022-10-22T04:55:44;27;22;15
57049;PMS7003;42935;50.966;16.992;2022-10-22T04:58:59;28;21;15
57049;PMS7003;42935;50.966;16.992;2022-10-22T05:02:14;28;20;13
57049;PMS7003;42935;50.966;16.992;2022-10-22T05:05:28;27;23;15
57049;PMS7003;42935;50.966;16.992;2022-10-22T05:08:38;31;24;16
57049;PMS7003;42935;50.966;16.992;2022-10-22T05:11:58;30;25;15
57049;PMS7003;42935;50.966;16.992;2022-10-22T05:15:09;32;24;15
57049;PMS7003;42935;50.966;16.992;2022-10-22T05:18:20;28;23;16
57049;PMS7003;42935;50.966;16.992;2022-10-22T05:21:33;29;24;16
57049;PMS7003;42935;50.966;16.992;2022-10-22T05:24:59;29;20;14
57049;PMS7003;42935;50.966;16.992;2022-10-22T05:28:09;24;22;15
57049;PMS7003;42935;50.966;16.992;2022-10-22T05:31:24;27;23;15
57049;PMS7003;42935;50.966;16.992;2022-10-22T05:34:37;31;25;16
57049;PMS7003;42935;50.966;16.992;2022-10-22T05:37:48;29;22;15
57049;PMS7003;42935;50.966;16.992;2022-10-22T05:41:09;32;28;17
57049;PMS7003;42935;50.966;16.992;2022-10-22T05:44:21;33;24;16
57049;PMS7003;42935;50.966;16.992;2022-10-22T05:47:33;28;25;17
57049;PMS7003;42935;50.966;16.992;2022-10-22T05:50:44;31;28;17
57049;PMS7003;42935;50.966;16.992;2022-10-22T05:54:03;32;27;17
57049;PMS7003;42935;50.966;16.992;2022-10-22T05:57:22;33;30;18
57049;PMS7003;42935;50.966;16.992;2022-10-22T06:00:32;33;26;17
57049;PMS7003;42935;50.966;16.992;2022-10-22T06:03:46;32;26;18
57049;PMS7003;42935;50.966;16.992;2022-10-22T06:07:01;32;27;17
57049;PMS7003;42935;50.966;16.992;2022-10-22T06:10:15;26;23;14
57049;PMS7003;42935;50.966;16.992;2022-10-22T06:13:28;32;24;17
57049;PMS7003;42935;50.966;16.992;2022-10-22T06:16:40;26;22;15
57049;PMS7003;42935;50.966;16.992;2022-10-22T06:19:55;31;25;17
57049;PMS7003;42935;50.966;16.992;2022-10-22T06:23:02;27;24;16
57049;PMS7003;42935;50.966;16.992;2022-10-22T06:26:09;28;23;16
57049;PMS7003;42935;50.966;16.992;2022-10-22T06:29:27;35;31;20
57049;PMS7003;42935;50.966;16.992;2022-10-22T06:32:47;31;26;18
57049;PMS7003;42935;50.966;16.992;2022-10-22T06:36:09;28;25;17
57049;PMS7003;42935;50.966;16.992;2022-10-22T06:39:30;32;26;16
57049;PMS7003;42935;50.966;16.992;2022-10-22T06:42:41;24;20;11
57049;PMS7003;42935;50.966;16.992;2022-10-22T06:45:59;31;23;15
57049;PMS7003;42935;50.966;16.992;2022-10-22T06:49:12;23;19;14
57049;PMS7003;42935;50.966;16.992;2022-10-22T06:52:25;26;22;14
57049;PMS7003;42935;50.966;16.992;2022-10-22T06:55:40;27;24;14
57049;PMS7003;42935;50.966;16.992;2022-10-22T06:58:53;29;26;18
57049;PMS7003;42935;50.966;16.992;2022-10-22T07:02:08;33;29;17
57049;PMS7003;42935;50.966;16.992;2022-10-22T07:05:17;37;27;17
57049;PMS7003;42935;50.966;16.992;2022-10-22T07:08:33;32;26;16
57049;PMS7003;42935;50.966;16.992;2022-10-22T07:11:45;29;26;16
57049;PMS7003;42935;50.966;16.992;2022-10-22T07:14:56;31;25;17
57049;PMS7003;42935;50.966;16.992;2022-10-22T07:18:11;28;23;15
57049;PMS7003;42935;50.966;16.992;2022-10-22T07:21:24;30;22;16
57049;PMS7003;42935;50.966;16.992;2022-10-22T07:24:35;27;22;16
57049;PMS7003;42935;50.966;16.992;2022-10-22T07:28:15;27;20;14
57049;PMS7003;42935;50.966;16.992;2022-10-22T07:31:31;29;24;15
57049;PMS7003;42935;50.966;16.992;2022-10-22T07:34:42;23;21;14
57049;PMS7003;42935;50.966;16.992;2022-10-22T07:37:57;26;22;13
57049;PMS7003;42935;50.966;16.992;2022-10-22T07:41:36;24;22;15
57049;PMS7003;42935;50.966;16.992;2022-10-22T07:44:46;29;25;16
57049;PMS7003;42935;50.966;16.992;2022-10-22T07:48:00;30;25;14
57049;PMS7003;42935;50.966;16.992;2022-10-22T07:51:13;31;24;15
57049;PMS7003;42935;50.966;16.992;2022-10-22T07:54:23;29;26;16
57049;PMS7003;42935;50.966;16.992;2022-10-22T07:57:38;29;23;15
57049;PMS7003;42935;50.966;16.992;2022-10-22T08:00:47;30;24;17
57049;PMS7003;42935;50.966;16.992;2022-10-22T08:03:58;27;22;15
57049;PMS7003;42935;50.966;16.992;2022-10-22T08:07:09;33;27;15
57049;PMS7003;42935;50.966;16.992;2022-10-22T08:10:19;31;28;17
57049;PMS7003;42935;50.966;16.992;2022-10-22T08:13:33;28;24;16
57049;PMS7003;42935;50.966;16.992;2022-10-22T08:16:48;31;28;18
57049;PMS7003;42935;50.966;16.992;2022-10-22T08:20:29;34;28;18
57049;PMS7003;42935;50.966;16.992;2022-10-22T08:23:43;37;31;19
57049;PMS7003;42935;50.966;16.992;2022-10-22T08:27:25;39;29;18
57049;PMS7003;42935;50.966;16.992;2022-10-22T08:30:41;36;30;19
57049;PMS7003;42935;50.966;16.992;2022-10-22T08:33:57;37;30;20
57049;PMS7003;42935;50.966;16.992;2022-10-22T08:37:43;44;33;22
57049;PMS7003;42935;50.966;16.992;2022-10-22T08:40:56;38;33;22
57049;PMS7003;42935;50.966;16.992;2022-10-22T08:51:12;35;29;19
57049;PMS7003;42935;50.966;16.992;2022-10-22T08:55:01;33;29;19
57049;PMS7003;42935;50.966;16.992;2022-10-22T08:58:21;35;29;19
57049;PMS7003;42935;50.966;16.992;2022-10-22T09:08:28;37;30;20
57049;PMS7003;42935;50.966;16.992;2022-10-22T09:12:09;32;29;20
57049;PMS7003;42935;50.966;16.992;2022-10-22T09:16:10;38;30;19
57049;PMS7003;42935;50.966;16.992;2022-10-22T09:19:25;31;26;18
57049;PMS7003;42935;50.966;16.992;2022-10-22T09:22:49;34;30;19
57049;PMS7003;42935;50.966;16.992;2022-10-22T09:26:36;34;30;19
57049;PMS7003;42935;50.966;16.992;2022-10-22T09:29:46;31;26;19
57049;PMS7003;42935;50.966;16.992;2022-10-22T09:33:05;33;29;20
57049;PMS7003;42935;50.966;16.992;2022-10-22T09:36:21;36;29;20
57049;PMS7003;42935;50.966;16.992;2022-10-22T09:42:52;43;30;19
57049;PMS7003;42935;50.966;16.992;2022-10-22T09:49:27;31;28;20
57049;PMS7003;42935;50.966;16.992;2022-10-22T09:52:43;42;33;22
57049;PMS7003;42935;50.966;16.992;2022-10-22T09:55:55;49;38;24
57049;PMS7003;42935;50.966;16.992;2022-10-22T09:59:14;45;34;22
57049;PMS7003;42935;50.966;16.992;2022-10-22T10:02:27;35;30;20
57049;PMS7003;42935;50.966;16.992;2022-10-22T10:05:38;33;28;19
57049;PMS7003;42935;50.966;16.992;2022-10-22T10:09:04;38;28;18
57049;PMS7003;42935;50.966;16.992;2022-10-22T10:12:22;34;28;19
57049;PMS7003;42935;50.966;16.992;2022-10-22T10:15:49;32;29;19
57049;PMS7003;42935;50.966;16.992;2022-10-22T10:22:40;30;25;18
57049;PMS7003;42935;50.966;16.992;2022-10-22T10:33:21;39;32;21
57049;PMS7003;42935;50.966;16.992;2022-10-22T10:36:53;35;27;17
57049;PMS7003;42935;50.966;16.992;2022-10-22T10:40:15;40;27;18
57049;PMS7003;42935;50.966;16.992;2022-10-22T10:43:39;32;26;18
57049;PMS7003;42935;50.966;16.992;2022-10-22T10:50:17;34;26;16
57049;PMS7003;42935;50.966;16.992;2022-10-22T10:53:40;25;22;16
57049;PMS7003;42935;50.966;16.992;2022-10-22T10:56:58;26;24;16
57049;PMS7003;42935;50.966;16.992;2022-10-22T11:00:18;25;20;15
57049;PMS7003;42935;50.966;16.992;2022-10-22T11:07:04;22;18;14
57049;PMS7003;42935;50.966;16.992;2022-10-22T11:17:14;24;21;14
57049;PMS7003;42935;50.966;16.992;2022-10-22T11:24:26;25;19;13
57049;PMS7003;42935;50.966;16.992;2022-10-22T11:27:46;26;20;14
57049;PMS7003;42935;50.966;16.992;2022-10-22T11:31:08;25;20;15
57049;PMS7003;42935;50.966;16.992;2022-10-22T11:34:25;29;22;14
57049;PMS7003;42935;50.966;16.992;2022-10-22T11:37:42;22;20;13
57049;PMS7003;42935;50.966;16.992;2022-10-22T11:44:10;25;22;14
57049;PMS7003;42935;50.966;16.992;2022-10-22T11:47:30;29;26;16
57049;PMS7003;42935;50.966;16.992;2022-10-22T11:50:46;23;21;15
57049;PMS7003;42935;50.966;16.992;2022-10-22T12:00:46;28;23;17
57049;PMS7003;42935;50.966;16.992;2022-10-22T12:21:19;40;34;22
57049;PMS7003;42935;50.966;16.992;2022-10-22T12:24:29;35;30;21
57049;PMS7003;42935;50.966;16.992;2022-10-22T12:27:51;46;37;24
57049;PMS7003;42935;50.966;16.992;2022-10-22T12:31:03;74;65;49
57049;PMS7003;42935;50.966;16.992;2022-10-22T12:34:14;52;39;26
57049;PMS7003;42935;50.966;16.992;2022-10-22T12:37:25;29;27;20
57049;PMS7003;42935;50.966;16.992;2022-10-22T12:40:33;29;23;16
57049;PMS7003;42935;50.966;16.992;2022-10-22T12:43:46;27;25;18
57049;PMS7003;42935;50.966;16.992;2022-10-22T12:46:55;30;25;18
57049;PMS7003;42935;50.966;16.992;2022-10-22T12:50:04;26;23;17
57049;PMS7003;42935;50.966;16.992;2022-10-22T12:53:14;22;19;14
57049;PMS7003;42935;50.966;16.992;2022-10-22T12:56:28;32;28;20
57049;PMS7003;42935;50.966;16.992;2022-10-22T13:03:31;30;27;18
57049;PMS7003;42935;50.966;16.992;2022-10-22T13:06:50;43;35;22
57049;PMS7003;42935;50.966;16.992;2022-10-22T13:13:32;31;27;18
57049;PMS7003;42935;50.966;16.992;2022-10-22T13:23:32;30;24;17
57049;PMS7003;42935;50.966;16.992;2022-10-22T13:27:12;27;23;17
57049;PMS7003;42935;50.966;16.992;2022-10-22T13:33:38;31;25;15
57049;PMS7003;42935;50.966;16.992;2022-10-22T13:36:56;38;32;22
57049;PMS7003;42935;50.966;16.992;2022-10-22T13:40:11;35;29;19
57049;PMS7003;42935;50.966;16.992;2022-10-22T13:43:21;36;26;19
57049;PMS7003;42935;50.966;16.992;2022-10-22T13:46:39;55;45;28
57049;PMS7003;42935;50.966;16.992;2022-10-22T13:49:49;52;42;28
57049;PMS7003;42935;50.966;16.992;2022-10-22T13:52:59;44;35;23
57049;PMS7003;42935;50.966;16.992;2022-10-22T13:56:14;42;36;25
57049;PMS7003;42935;50.966;16.992;2022-10-22T13:59:30;41;33;23
57049;PMS7003;42935;50.966;16.992;2022-10-22T14:02:46;43;34;22
57049;PMS7003;42935;50.966;16.992;2022-10-22T14:06:03;43;34;22
57049;PMS7003;42935;50.966;16.992;2022-10-22T14:09:22;33;30;19
57049;PMS7003;42935;50.966;16.992;2022-10-22T14:12:31;42;30;20
57049;PMS7003;42935;50.966;16.992;2022-10-22T14:15:40;32;27;20
57049;PMS7003;42935;50.966;16.992;2022-10-22T14:18:54;33;30;18
57049;PMS7003;42935;50.966;16.992;2022-10-22T14:22:04;34;30;20
57049;PMS7003;42935;50.966;16.992;2022-10-22T14:25:14;34;29;21
57049;PMS7003;42935;50.966;16.992;2022-10-22T14:28:26;34;30;20
57049;PMS7003;42935;50.966;16.992;2022-10-22T14:31:36;33;27;18
57049;PMS7003;42935;50.966;16.992;2022-10-22T14:34:50;38;32;19
57049;PMS7003;42935;50.966;16.992;2022-10-22T14:38:11;48;38;26
57049;PMS7003;42935;50.966;16.992;2022-10-22T14:41:22;37;30;20
57049;PMS7003;42935;50.966;16.992;2022-10-22T14:44:31;34;28;19
57049;PMS7003;42935;50.966;16.992;2022-10-22T14:47:44;38;29;18
57049;PMS7003;42935;50.966;16.992;2022-10-22T14:50:53;40;32;21
57049;PMS7003;42935;50.966;16.992;2022-10-22T14:54:02;37;29;18
57049;PMS7003;42935;50.966;16.992;2022-10-22T14:57:11;35;28;19
57049;PMS7003;42935;50.966;16.992;2022-10-22T15:00:20;34;28;18
57049;PMS7003;42935;50.966;16.992;2022-10-22T15:03:59;31;25;18
57049;PMS7003;42935;50.966;16.992;2022-10-22T15:07:13;31;26;17
57049;PMS7003;42935;50.966;16.992;2022-10-22T15:10:23;30;27;18
57049;PMS7003;42935;50.966;16.992;2022-10-22T15:13:39;31;27;18
57049;PMS7003;42935;50.966;16.992;2022-10-22T15:17:18;25;23;17
57049;PMS7003;42935;50.966;16.992;2022-10-22T15:20:27;28;23;15
57049;PMS7003;42935;50.966;16.992;2022-10-22T15:23:36;27;25;17
57049;PMS7003;42935;50.966;16.992;2022-10-22T15:26:47;26;22;15
57049;PMS7003;42935;50.966;16.992;2022-10-22T15:30:00;24;19;13
57049;PMS7003;42935;50.966;16.992;2022-10-22T15:33:09;25;21;14
57049;PMS7003;42935;50.966;16.992;2022-10-22T15:36:17;24;22;14
57049;PMS7003;42935;50.966;16.992;2022-10-22T15:39:26;26;23;15
57049;PMS7003;42935;50.966;16.992;2022-10-22T15:42:36;22;19;13
57049;PMS7003;42935;50.966;16.992;2022-10-22T15:46:02;21;19;12
57049;PMS7003;42935;50.966;16.992;2022-10-22T15:49:12;19;16;11
57049;PMS7003;42935;50.966;16.992;2022-10-22T15:52:21;33;27;20
57049;PMS7003;42935;50.966;16.992;2022-10-22T15:55:29;25;22;16
57049;PMS7003;42935;50.966;16.992;2022-10-22T15:58:48;51;40;26
57049;PMS7003;42935;50.966;16.992;2022-10-22T16:02:29;34;29;21
57049;PMS7003;42935;50.966;16.992;2022-10-22T16:05:33;26;22;16
57049;PMS7003;42935;50.966;16.992;2022-10-22T16:08:40;26;20;15
57049;PMS7003;42935;50.966;16.992;2022-10-22T16:11:47;27;23;17
57049;PMS7003;42935;50.966;16.992;2022-10-22T16:14:57;28;25;19
57049;PMS7003;42935;50.966;16.992;2022-10-22T16:18:06;36;26;18
57049;PMS7003;42935;50.966;16.992;2022-10-22T16:21:19;29;24;15
57049;PMS7003;42935;50.966;16.992;2022-10-22T16:24:25;29;23;15
57049;PMS7003;42935;50.966;16.992;2022-10-22T16:27:38;31;26;18
57049;PMS7003;42935;50.966;16.992;2022-10-22T16:30:43;35;30;19
57049;PMS7003;42935;50.966;16.992;2022-10-22T16:34:08;37;30;20
57049;PMS7003;42935;50.966;16.992;2022-10-22T16:37:23;39;33;22
57049;PMS7003;42935;50.966;16.992;2022-10-22T16:40:36;42;33;22
57049;PMS7003;42935;50.966;16.992;2022-10-22T16:43:53;44;35;23
57049;PMS7003;42935;50.966;16.992;2022-10-22T16:47:32;43;35;23
57049;PMS7003;42935;50.966;16.992;2022-10-22T16:50:45;32;28;19
57049;PMS7003;42935;50.966;16.992;2022-10-22T16:54:00;30;27;18
57049;PMS7003;42935;50.966;16.992;2022-10-22T16:57:06;31;26;19
57049;PMS7003;42935;50.966;16.992;2022-10-22T17:00:19;29;26;18
57049;PMS7003;42935;50.966;16.992;2022-10-22T17:03:27;31;28;20
57049;PMS7003;42935;50.966;16.992;2022-10-22T17:06:36;37;31;21
57049;PMS7003;42935;50.966;16.992;2022-10-22T17:09:50;41;33;21
57049;PMS7003;42935;50.966;16.992;2022-10-22T17:13:03;38;32;21
57049;PMS7003;42935;50.966;16.992;2022-10-22T17:16:16;41;33;22
57049;PMS7003;42935;50.966;16.992;2022-10-22T17:19:27;45;35;22
57049;PMS7003;42935;50.966;16.992;2022-10-22T17:22:37;44;34;23
57049;PMS7003;42935;50.966;16.992;2022-10-22T17:25:46;39;33;22
57049;PMS7003;42935;50.966;16.992;2022-10-22T17:29:03;42;33;23
57049;PMS7003;42935;50.966;16.992;2022-10-22T17:32:16;45;36;23
57049;PMS7003;42935;50.966;16.992;2022-10-22T17:35:31;45;35;22
57049;PMS7003;42935;50.966;16.992;2022-10-22T17:38:51;42;34;23
57049;PMS7003;42935;50.966;16.992;2022-10-22T17:42:02;44;34;22
57049;PMS7003;42935;50.966;16.992;2022-10-22T17:45:14;41;33;20
57049;PMS7003;42935;50.966;16.992;2022-10-22T17:48:21;40;34;22
57049;PMS7003;42935;50.966;16.992;2022-10-22T17:51:34;51;39;24
57049;PMS7003;42935;50.966;16.992;2022-10-22T17:54:48;47;37;25
57049;PMS7003;42935;50.966;16.992;2022-10-22T17:58:03;47;34;22
57049;PMS7003;42935;50.966;16.992;2022-10-22T18:04:31;35;32;21
57049;PMS7003;42935;50.966;16.992;2022-10-22T18:07:41;43;33;21
57049;PMS7003;42935;50.966;16.992;2022-10-22T18:10:50;37;31;20
57049;PMS7003;42935;50.966;16.992;2022-10-22T18:13:59;37;30;19
57049;PMS7003;42935;50.966;16.992;2022-10-22T18:17:07;42;32;21
57049;PMS7003;42935;50.966;16.992;2022-10-22T18:20:16;37;31;20
57049;PMS7003;42935;50.966;16.992;2022-10-22T18:23:59;36;30;20
57049;PMS7003;42935;50.966;16.992;2022-10-22T18:27:07;41;31;22
57049;PMS7003;42935;50.966;16.992;2022-10-22T18:30:21;44;34;23
57049;PMS7003;42935;50.966;16.992;2022-10-22T18:33:28;45;33;22
57049;PMS7003;42935;50.966;16.992;2022-10-22T18:36:41;46;36;23
57049;PMS7003;42935;50.966;16.992;2022-10-22T18:39:50;40;34;22
57049;PMS7003;42935;50.966;16.992;2022-10-22T18:43:07;38;31;20
57049;PMS7003;42935;50.966;16.992;2022-10-22T18:46:21;37;30;20
57049;PMS7003;42935;50.966;16.992;2022-10-22T18:49:35;36;30;18
57049;PMS7003;42935;50.966;16.992;2022-10-22T18:52:48;36;30;21
57049;PMS7003;42935;50.966;16.992;2022-10-22T18:56:08;38;31;19
57049;PMS7003;42935;50.966;16.992;2022-10-22T18:59:24;39;31;20
57049;PMS7003;42935;50.966;16.992;2022-10-22T19:02:34;32;28;18
57049;PMS7003;42935;50.966;16.992;2022-10-22T19:05:49;37;31;20
57049;PMS7003;42935;50.966;16.992;2022-10-22T19:09:00;35;29;20
57049;PMS7003;42935;50.966;16.992;2022-10-22T19:12:12;35;27;19
57049;PMS7003;42935;50.966;16.992;2022-10-22T19:15:22;32;24;16
57049;PMS7003;42935;50.966;16.992;2022-10-22T19:18:31;29;23;17
57049;PMS7003;42935;50.966;16.992;2022-10-22T19:21:41;26;23;16
57049;PMS7003;42935;50.966;16.992;2022-10-22T19:24:49;27;24;17
57049;PMS7003;42935;50.966;16.992;2022-10-22T19:27:58;30;24;18
57049;PMS7003;42935;50.966;16.992;2022-10-22T19:31:12;32;26;18
57049;PMS7003;42935;50.966;16.992;2022-10-22T19:34:25;30;26;19
57049;PMS7003;42935;50.966;16.992;2022-10-22T19:37:34;35;24;18
57049;PMS7003;42935;50.966;16.992;2022-10-22T19:40:46;31;27;17
57049;PMS7003;42935;50.966;16.992;2022-10-22T19:43:58;31;27;18
57049;PMS7003;42935;50.966;16.992;2022-10-22T19:47:03;32;25;17
57049;PMS7003;42935;50.966;16.992;2022-10-22T19:50:16;32;27;17
57049;PMS7003;42935;50.966;16.992;2022-10-22T19:53:28;26;21;15
57049;PMS7003;42935;50.966;16.992;2022-10-22T19:56:38;30;27;17
57049;PMS7003;42935;50.966;16.992;2022-10-22T19:59:46;29;22;15
57049;PMS7003;42935;50.966;16.992;2022-10-22T20:02:57;32;23;16
57049;PMS7003;42935;50.966;16.992;2022-10-22T20:06:07;28;24;16
57049;PMS7003;42935;50.966;16.992;2022-10-22T20:09:17;28;26;17
57049;PMS7003;42935;50.966;16.992;2022-10-22T20:12:30;26;25;16
57049;PMS7003;42935;50.966;16.992;2022-10-22T20:15:45;31;25;17
57049;PMS7003;42935;50.966;16.992;2022-10-22T20:18:58;28;24;16
57049;PMS7003;42935;50.966;16.992;2022-10-22T20:22:08;29;27;18
57049;PMS7003;42935;50.966;16.992;2022-10-22T20:25:18;33;27;17
57049;PMS7003;42935;50.966;16.992;2022-10-22T20:28:27;30;24;16
57049;PMS7003;42935;50.966;16.992;2022-10-22T20:31:37;25;21;15
57049;PMS7003;42935;50.966;16.992;2022-10-22T20:34:49;25;21;15
57049;PMS7003;42935;50.966;16.992;2022-10-22T20:37:56;26;21;16
57049;PMS7003;42935;50.966;16.992;2022-10-22T20:41:07;26;22;16
57049;PMS7003;42935;50.966;16.992;2022-10-22T20:44:17;28;23;17
57049;PMS7003;42935;50.966;16.992;2022-10-22T20:47:26;26;22;16
57049;PMS7003;42935;50.966;16.992;2022-10-22T20:50:39;27;24;16
57049;PMS7003;42935;50.966;16.992;2022-10-22T20:53:45;27;22;15
57049;PMS7003;42935;50.966;16.992;2022-10-22T20:56:50;31;23;17
57049;PMS7003;42935;50.966;16.992;2022-10-22T20:59:58;28;23;16
57049;PMS7003;42935;50.966;16.992;2022-10-22T21:03:09;28;25;16
57049;PMS7003;42935;50.966;16.992;2022-10-22T21:06:15;30;25;18
57049;PMS7003;42935;50.966;16.992;2022-10-22T21:09:29;30;22;15
57049;PMS7003;42935;50.966;16.992;2022-10-22T21:12:40;23;21;15
57049;PMS7003;42935;50.966;16.992;2022-10-22T21:15:51;26;22;15
57049;PMS7003;42935;50.966;16.992;2022-10-22T21:19:04;27;21;15
57049;PMS7003;42935;50.966;16.992;2022-10-22T21:22:13;24;20;15
57049;PMS7003;42935;50.966;16.992;2022-10-22T21:25:23;30;24;15
57049;PMS7003;42935;50.966;16.992;2022-10-22T21:28:33;31;24;16
57049;PMS7003;42935;50.966;16.992;2022-10-22T21:31:43;28;23;14
57049;PMS7003;42935;50.966;16.992;2022-10-22T21:35:00;32;26;15
57049;PMS7003;42935;50.966;16.992;2022-10-22T21:38:13;28;24;16
57049;PMS7003;42935;50.966;16.992;2022-10-22T21:41:24;31;23;16
57049;PMS7003;42935;50.966;16.992;2022-10-22T21:44:33;30;27;18
57049;PMS7003;42935;50.966;16.992;2022-10-22T21:47:44;23;21;16
57049;PMS7003;42935;50.966;16.992;2022-10-22T21:51:05;28;24;16
57049;PMS7003;42935;50.966;16.992;2022-10-22T21:54:13;28;23;16
57049;PMS7003;42935;50.966;16.992;2022-10-22T21:57:22;31;22;15
57049;PMS7003;42935;50.966;16.992;2022-10-22T22:00:39;26;23;17
57049;PMS7003;42935;50.966;16.992;2022-10-22T22:03:53;27;23;17
57049;PMS7003;42935;50.966;16.992;2022-10-22T22:07:02;30;26;16
57049;PMS7003;42935;50.966;16.992;2022-10-22T22:10:07;34;27;18
57049;PMS7003;42935;50.966;16.992;2022-10-22T22:13:16;33;25;17
57049;PMS7003;42935;50.966;16.992;2022-10-22T22:16:30;25;23;17
57049;PMS7003;42935;50.966;16.992;2022-10-22T22:19:44;33;27;17
57049;PMS7003;42935;50.966;16.992;2022-10-22T22:22:51;26;24;16
57049;PMS7003;42935;50.966;16.992;2022-10-22T22:26:00;24;22;14
57049;PMS7003;42935;50.966;16.992;2022-10-22T22:29:09;28;24;16
57049;PMS7003;42935;50.966;16.992;2022-10-22T22:32:19;34;26;17
57049;PMS7003;42935;50.966;16.992;2022-10-22T22:35:29;28;25;16